createdAt,value
2022-11-28T00:01:27.339Z,47.25
2022-11-28T00:03:54.541Z,41.53
2022-11-28T00:06:22.090Z,39.20
2022-11-28T00:08:49.369Z,44.13
2022-11-28T00:11:17.154Z,39.28
2022-11-28T00:13:45.498Z,43.90
2022-11-28T00:16:17.847Z,46.80
2022-11-28T00:18:44.995Z,39.97
2022-11-28T00:21:14.474Z,53.97
2022-11-28T00:23:43.216Z,42.53
2022-11-28T00:26:13.320Z,44.85
2022-11-28T00:28:40.882Z,46.30
2022-11-28T00:31:14.049Z,41.63
2022-11-28T00:33:42.145Z,49.70
2022-11-28T00:36:09.689Z,41.55
2022-11-28T00:38:37.078Z,45.90
2022-11-28T00:41:10.025Z,51.75
2022-11-28T00:43:37.342Z,51.28
2022-11-28T00:46:04.699Z,52.58
2022-11-28T00:48:36.319Z,52.33
2022-11-28T00:51:12.706Z,40.25
2022-11-28T00:53:43.073Z,48.92
2022-11-28T00:56:13.141Z,47.70
2022-11-28T00:58:41.960Z,45.83
2022-11-28T01:01:21.041Z,51.15
2022-11-28T01:03:49.445Z,50.95
2022-11-28T01:06:26.992Z,44.08
2022-11-28T01:08:56.557Z,43.88
2022-11-28T01:11:23.850Z,43.53
2022-11-28T01:13:53.504Z,37.92
2022-11-28T01:16:20.591Z,48.10
2022-11-28T01:18:47.589Z,41.95
2022-11-28T01:21:14.795Z,45.25
2022-11-28T01:23:42.095Z,42.30
2022-11-28T01:26:11.957Z,47.22
2022-11-28T01:28:39.054Z,36.80
2022-11-28T01:31:08.562Z,47.17
2022-11-28T01:33:36.194Z,44.05
2022-11-28T01:36:04.031Z,48.22
2022-11-28T01:38:31.298Z,40.83
2022-11-28T01:40:58.672Z,41.92
2022-11-28T01:43:26.200Z,40.70
2022-11-28T01:45:54.038Z,41.63
2022-11-28T01:48:36.974Z,53.47
2022-11-28T01:51:07.956Z,41.40
2022-11-28T01:53:39.752Z,37.38
2022-11-28T01:56:10.079Z,44.28
2022-11-28T01:58:43.140Z,34.97
2022-11-28T02:01:11.184Z,39.38
2022-11-28T02:03:45.050Z,50.63
2022-11-28T02:06:15.029Z,42.25
2022-11-28T02:08:42.511Z,39.63
2022-11-28T02:11:40.143Z,46.53
2022-11-28T02:14:24.929Z,39.17
2022-11-28T02:17:22.438Z,37.28
2022-11-28T02:20:17.178Z,44.30
2022-11-28T02:23:05.878Z,39.00
2022-11-28T02:25:48.307Z,37.83
2022-11-28T02:28:46.423Z,46.05
2022-11-28T02:32:05.221Z,39.85
2022-11-28T02:35:12.870Z,37.22
2022-11-28T02:38:13.072Z,37.47
2022-11-28T02:41:21.772Z,34.95
2022-11-28T02:44:00.328Z,35.50
2022-11-28T02:46:38.953Z,45.05
2022-11-28T02:49:10.412Z,42.17
2022-11-28T02:51:39.911Z,38.00
2022-11-28T02:54:10.456Z,42.30
2022-11-28T02:56:37.994Z,42.17
2022-11-28T02:59:21.439Z,41.13
2022-11-28T03:01:48.650Z,42.08
2022-11-28T03:04:15.855Z,40.88
2022-11-28T03:07:04.072Z,36.83
2022-11-28T03:09:56.205Z,35.95
2022-11-28T03:12:56.637Z,29.77
2022-11-28T03:15:36.121Z,29.35
2022-11-28T03:18:17.318Z,30.02
2022-11-28T03:20:53.949Z,28.20
2022-11-28T03:23:30.447Z,28.40
2022-11-28T03:26:08.194Z,30.10
2022-11-28T03:28:57.478Z,31.77
2022-11-28T03:31:35.488Z,33.85
2022-11-28T03:34:06.804Z,28.00
2022-11-28T03:36:41.025Z,28.23
2022-11-28T03:39:22.503Z,25.85
2022-11-28T03:42:02.213Z,31.55
2022-11-28T03:44:32.265Z,28.75
2022-11-28T03:47:02.462Z,28.13
2022-11-28T03:49:44.135Z,29.20
2022-11-28T03:52:23.438Z,28.85
2022-11-28T03:54:57.325Z,28.60
2022-11-28T03:57:42.530Z,30.00
2022-11-28T04:00:13.096Z,25.17
2022-11-28T04:03:09.359Z,25.20
2022-11-28T04:05:46.269Z,31.08
2022-11-28T04:08:29.714Z,30.58
2022-11-28T04:11:01.481Z,32.45
2022-11-28T04:13:48.479Z,27.30
2022-11-28T04:16:34.140Z,28.23
2022-11-28T04:19:17.192Z,25.00
2022-11-28T04:21:54.568Z,30.60
2022-11-28T04:24:27.378Z,24.15
2022-11-28T04:29:26.930Z,31.10
2022-11-28T04:31:58.451Z,30.02
2022-11-28T04:34:28.303Z,31.75
2022-11-28T04:36:58.033Z,30.95
2022-11-28T04:39:28.000Z,35.55
2022-11-28T04:42:08.992Z,30.10
2022-11-28T04:44:53.591Z,35.33
2022-11-28T04:47:21.315Z,39.47
2022-11-28T04:49:49.049Z,31.10
2022-11-28T04:52:24.956Z,39.33
2022-11-28T04:55:08.182Z,36.17
2022-11-28T04:57:41.647Z,44.72
2022-11-28T05:00:12.938Z,44.63
2022-11-28T05:02:41.700Z,41.92
2022-11-28T05:05:21.721Z,40.92
2022-11-28T05:07:49.296Z,35.55
2022-11-28T05:10:17.014Z,33.88
2022-11-28T05:12:44.241Z,42.85
2022-11-28T05:15:12.387Z,39.83
2022-11-28T05:17:42.443Z,38.42
2022-11-28T05:20:10.482Z,39.45
2022-11-28T05:22:37.502Z,29.33
2022-11-28T05:25:04.838Z,41.65
2022-11-28T05:27:32.298Z,33.25
2022-11-28T05:29:59.647Z,41.10
2022-11-28T05:32:31.355Z,42.03
2022-11-28T05:34:58.750Z,42.20
2022-11-28T05:37:26.726Z,38.78
2022-11-28T05:39:54.490Z,42.80
2022-11-28T05:42:21.947Z,39.17
2022-11-28T05:44:49.164Z,42.10
2022-11-28T05:47:16.257Z,46.97
2022-11-28T05:49:43.590Z,40.67
2022-11-28T05:52:10.891Z,42.05
2022-11-28T05:54:38.066Z,40.03
2022-11-28T05:57:07.236Z,44.35
2022-11-28T05:59:34.634Z,40.85
2022-11-28T06:02:02.036Z,47.97
2022-11-28T06:04:29.684Z,39.40
2022-11-28T06:06:56.752Z,41.55
2022-11-28T06:09:26.068Z,34.85
2022-11-28T06:11:53.450Z,40.50
2022-11-28T06:14:20.689Z,40.42
2022-11-28T06:16:47.827Z,46.05
2022-11-28T06:19:15.023Z,39.95
2022-11-28T06:21:42.390Z,42.70
2022-11-28T06:24:10.812Z,36.85
2022-11-28T06:26:38.017Z,42.78
2022-11-28T06:29:05.233Z,40.88
2022-11-28T06:31:32.808Z,38.15
2022-11-28T06:34:00.266Z,43.83
2022-11-28T06:36:27.967Z,41.55
2022-11-28T06:38:55.151Z,47.10
2022-11-28T06:41:23.127Z,54.80
2022-11-28T06:43:50.704Z,42.30
2022-11-28T06:46:20.639Z,51.95
2022-11-28T06:48:49.577Z,35.53
2022-11-28T06:51:17.375Z,45.15
2022-11-28T06:53:44.884Z,37.22
2022-11-28T06:56:14.617Z,44.15
2022-11-28T06:58:42.423Z,38.45
2022-11-28T07:01:16.532Z,41.10
2022-11-28T07:03:44.828Z,44.22
2022-11-28T07:06:13.685Z,40.40
2022-11-28T07:08:41.357Z,35.85
2022-11-28T07:11:14.929Z,38.08
2022-11-28T07:13:45.762Z,35.42
2022-11-28T07:16:17.262Z,31.10
2022-11-28T07:23:40.032Z,35.28
2022-11-28T07:26:10.533Z,38.28
2022-11-28T07:50:10.193Z,27.95
2022-11-28T08:03:48.183Z,25.40
2022-11-28T08:13:43.133Z,26.02
2022-11-28T08:17:06.296Z,29.90
2022-11-28T08:19:40.329Z,26.17
2022-11-28T08:22:18.078Z,26.23
2022-11-28T08:24:48.831Z,30.95
2022-11-28T08:27:36.351Z,27.50
2022-11-28T08:30:41.255Z,26.85
2022-11-28T08:37:40.164Z,28.13
2022-11-28T08:41:08.507Z,23.67
2022-11-28T08:46:47.398Z,28.90
2022-11-28T08:49:30.427Z,27.37
2022-11-28T08:55:57.206Z,28.05
2022-11-28T09:22:43.599Z,28.25
2022-11-28T09:43:35.796Z,31.45
2022-11-28T10:04:11.852Z,29.38
2022-11-28T10:14:06.558Z,30.92
2022-11-28T10:57:14.353Z,39.77
2022-11-28T11:00:43.046Z,28.15
2022-11-28T11:03:33.541Z,34.00
2022-11-28T11:09:39.117Z,30.35
2022-11-28T11:16:04.320Z,32.97
2022-11-28T11:57:00.682Z,40.33
2022-11-28T11:59:46.149Z,32.70
2022-11-28T12:02:33.973Z,34.05
2022-11-28T12:08:55.384Z,33.88
2022-11-28T12:47:32.312Z,29.48
2022-11-28T13:46:48.104Z,29.20
2022-11-28T13:56:40.548Z,30.10
2022-11-28T14:03:03.069Z,35.78
2022-11-28T14:05:38.515Z,35.83
2022-11-28T15:21:29.232Z,26.15
2022-11-28T15:57:23.475Z,40.25
2022-11-28T15:59:51.188Z,45.42
2022-11-28T16:02:32.968Z,46.47
2022-11-28T16:05:06.976Z,45.80
2022-11-28T16:07:40.493Z,46.78
2022-11-28T16:10:20.753Z,45.03
2022-11-28T16:12:48.554Z,40.85
2022-11-28T16:15:20.828Z,46.97
2022-11-28T16:17:48.495Z,37.08
2022-11-28T16:20:27.045Z,43.85
2022-11-28T16:23:07.872Z,46.80
2022-11-28T16:25:35.689Z,43.28
2022-11-28T16:28:03.012Z,44.95
2022-11-28T16:30:39.474Z,45.78
2022-11-28T16:33:36.900Z,43.22
2022-11-28T16:36:18.709Z,46.10
2022-11-28T16:38:48.363Z,60.35
2022-11-28T16:41:26.508Z,52.40
2022-11-28T16:43:59.059Z,59.80
2022-11-28T16:46:38.512Z,48.38
2022-11-28T16:49:09.374Z,51.08
2022-11-28T16:51:41.195Z,46.40
2022-11-28T16:54:31.954Z,47.75
2022-11-28T16:57:12.496Z,46.00
2022-11-28T16:59:40.726Z,57.97
2022-11-28T17:02:21.140Z,52.17
2022-11-28T17:04:50.443Z,57.80
2022-11-28T17:07:21.100Z,61.63
2022-11-28T17:09:49.972Z,60.78
2022-11-28T17:12:26.056Z,48.42
2022-11-28T17:14:55.042Z,53.20
2022-11-28T17:17:23.932Z,50.65
2022-11-28T17:19:52.846Z,50.38
2022-11-28T17:22:24.526Z,42.42
2022-11-28T17:24:58.587Z,44.38
2022-11-28T17:27:32.515Z,41.85
2022-11-28T17:30:02.373Z,46.35
2022-11-28T17:32:30.184Z,54.40
2022-11-28T17:35:00.341Z,45.90
2022-11-28T17:37:28.653Z,47.58
2022-11-28T17:40:14.687Z,40.70
2022-11-28T17:42:42.665Z,46.58
2022-11-28T17:45:15.705Z,46.42
2022-11-28T17:47:44.084Z,51.92
2022-11-28T17:50:11.868Z,50.25
2022-11-28T17:52:40.135Z,60.40
2022-11-28T17:55:08.709Z,55.95
2022-11-28T17:57:37.157Z,48.90
2022-11-28T18:00:09.435Z,49.58
2022-11-28T18:02:44.366Z,54.80
2022-11-28T18:05:12.549Z,51.80
2022-11-28T18:07:41.089Z,61.28
2022-11-28T18:10:11.749Z,58.20
2022-11-28T18:12:41.891Z,52.45
2022-11-28T18:15:11.081Z,56.38
2022-11-28T18:17:39.233Z,52.75
2022-11-28T18:20:08.454Z,50.63
2022-11-28T18:22:38.038Z,53.00
2022-11-28T18:25:08.907Z,64.25
2022-11-28T18:27:38.603Z,52.85
2022-11-28T18:30:07.383Z,52.17
2022-11-28T18:32:35.903Z,58.38
2022-11-28T18:35:03.896Z,58.78
2022-11-28T18:37:32.286Z,69.18
2022-11-28T18:40:07.670Z,68.13
2022-11-28T18:42:37.255Z,67.45
2022-11-28T18:45:05.418Z,59.20
2022-11-28T18:47:35.033Z,65.28
2022-11-28T18:50:03.316Z,64.47
2022-11-28T18:52:33.921Z,63.47
2022-11-28T18:55:02.124Z,66.43
2022-11-28T18:57:32.930Z,66.45
2022-11-28T19:00:02.157Z,75.90
2022-11-28T19:02:30.891Z,83.97
2022-11-28T19:04:59.145Z,78.57
2022-11-28T19:07:27.292Z,91.43
2022-11-28T19:09:55.193Z,77.53
2022-11-28T19:12:24.022Z,85.95
2022-11-28T19:14:55.085Z,90.93
2022-11-28T19:17:27.990Z,82.03
2022-11-28T19:19:56.538Z,76.50
2022-11-28T19:22:24.629Z,70.00
2022-11-28T19:24:53.068Z,77.93
2022-11-28T19:27:24.265Z,71.82
2022-11-28T19:29:54.117Z,91.18
2022-11-28T19:32:23.238Z,71.25
2022-11-28T19:34:57.333Z,79.07
2022-11-28T19:37:26.448Z,80.20
2022-11-28T19:39:58.525Z,82.28
2022-11-28T19:42:29.320Z,83.05
2022-11-28T19:44:57.644Z,86.75
2022-11-28T19:47:25.614Z,72.68
2022-11-28T19:49:58.586Z,66.93
2022-11-28T19:52:26.528Z,72.20
2022-11-28T19:54:54.114Z,68.63
2022-11-28T19:57:21.997Z,68.13
2022-11-28T19:59:49.925Z,57.08
2022-11-28T20:02:18.543Z,61.20
2022-11-28T20:04:47.116Z,50.25
2022-11-28T20:07:16.449Z,58.97
2022-11-28T20:09:48.455Z,57.08
2022-11-28T20:12:17.040Z,55.25
2022-11-28T20:14:45.260Z,52.85
2022-11-28T20:17:17.425Z,54.28
2022-11-28T20:19:45.382Z,54.22
2022-11-28T20:22:13.540Z,51.88
2022-11-28T20:24:42.173Z,53.67
2022-11-28T20:27:10.226Z,51.70
2022-11-28T20:29:38.376Z,56.65
2022-11-28T20:32:06.606Z,61.05
2022-11-28T20:34:36.265Z,58.17
2022-11-28T20:37:04.614Z,59.47
2022-11-28T20:39:32.946Z,55.80
2022-11-28T20:42:01.002Z,52.13
2022-11-28T20:44:28.961Z,55.25
2022-11-28T20:46:57.114Z,54.88
2022-11-28T20:49:25.078Z,51.85
2022-11-28T20:51:53.127Z,45.63
2022-11-28T20:54:21.080Z,58.33
2022-11-28T20:57:19.781Z,61.90
2022-11-28T20:59:37.138Z,56.20
2022-11-28T21:02:04.758Z,51.97
2022-11-28T21:04:32.647Z,50.63
2022-11-28T21:07:00.356Z,62.28
2022-11-28T21:09:27.939Z,53.97
2022-11-28T21:11:58.450Z,60.78
2022-11-28T21:14:28.246Z,58.92
2022-11-28T21:17:00.388Z,59.70
2022-11-28T21:19:28.656Z,60.22
2022-11-28T21:21:56.349Z,74.75
2022-11-28T21:24:24.205Z,88.82
2022-11-28T21:26:54.497Z,86.93
2022-11-28T21:29:23.629Z,66.55
2022-11-28T21:31:51.532Z,72.13
2022-11-28T21:34:19.712Z,59.72
2022-11-28T21:36:47.807Z,64.30
2022-11-28T21:39:17.820Z,56.25
2022-11-28T21:41:45.056Z,57.28
2022-11-28T21:44:12.613Z,55.33
2022-11-28T21:46:40.620Z,72.80
2022-11-28T21:49:08.190Z,65.80
2022-11-28T21:51:39.785Z,51.10
2022-11-28T21:54:07.660Z,61.40
2022-11-28T21:56:38.093Z,59.08
2022-11-28T21:59:05.723Z,50.63
2022-11-28T22:01:33.592Z,48.20
2022-11-28T22:04:03.079Z,60.90
2022-11-28T22:06:31.803Z,56.13
2022-11-28T22:09:03.244Z,55.97
2022-11-28T22:11:34.729Z,55.75
2022-11-28T22:14:03.533Z,50.97
2022-11-28T22:16:31.560Z,38.08
2022-11-28T22:19:00.781Z,45.55
2022-11-28T22:21:51.175Z,37.63
2022-11-28T22:24:15.677Z,30.30
2022-11-28T22:26:44.437Z,41.97
2022-11-28T22:29:13.233Z,46.35
2022-11-28T22:31:41.478Z,44.50
2022-11-28T22:34:09.766Z,35.33
2022-11-28T22:36:38.049Z,44.85
2022-11-28T22:39:06.420Z,40.78
2022-11-28T22:41:34.090Z,21.13
2022-11-28T22:44:03.913Z,42.25
2022-11-28T22:46:32.117Z,39.05
2022-11-28T22:49:03.900Z,44.15
2022-11-28T22:51:31.779Z,39.38
2022-11-28T22:54:01.544Z,48.65
2022-11-28T22:56:34.375Z,36.20
2022-11-28T22:59:04.949Z,39.55
2022-11-28T23:01:34.397Z,33.20
2022-11-28T23:04:02.119Z,34.42
2022-11-28T23:06:32.442Z,37.42
2022-11-28T23:09:01.813Z,27.73
2022-11-28T23:11:32.981Z,42.00
2022-11-28T23:14:01.980Z,36.65
2022-11-28T23:16:34.769Z,35.47
2022-11-28T23:19:05.801Z,43.70
2022-11-28T23:21:36.187Z,39.75
2022-11-28T23:24:05.861Z,37.78
2022-11-28T23:26:34.293Z,42.65
2022-11-28T23:29:05.745Z,37.35
2022-11-28T23:31:37.516Z,42.70
2022-11-28T23:34:06.050Z,30.17
2022-11-28T23:36:41.691Z,40.03
2022-11-28T23:39:16.184Z,34.13
2022-11-28T23:41:44.032Z,36.25
2022-11-28T23:44:14.986Z,37.00
2022-11-28T23:46:42.792Z,41.97
2022-11-28T23:49:10.686Z,37.03
2022-11-28T23:51:38.574Z,37.35
2022-11-28T23:54:06.135Z,45.35
2022-11-28T23:56:35.542Z,37.58
2022-11-28T23:59:05.723Z,37.38
